METAR AND TAF INFORMATION
METAR FOR VTBU
ADDS - METARS form results

(0717 UTC 22 January 2019)
Data provider http://aviationweather.gov/metar/data/
 
METAR text: VTBU 220700Z 18010KT 5000 HZ FEW020 31/19 Q1012 NOSIG
Conditions at: VTBU (RAYONG/U-TAPHAO , TH) observed 0700 UTC 22 January 2019
Temperature: 31.0°C (88°F)
Dewpoint: 19.0°C (66°F) [RH = 49%]
Pressure (altimeter): 29.88 inches Hg (1012.0 mb)
Winds: from the S (180 degrees) at 12 MPH (10 knots; 5.1 m/s)
Visibility: 3 miles ( 5 km)
Ceiling: at least 12,000 feet AGL
Clouds: few clouds at 2000 feet AGL
Weather: HZ  (haze)

METAR text: VTBU 220630Z 18010KT 4000 HZ FEW020 31/19 Q1012 NOSIG
Conditions at: VTBU (RAYONG/U-TAPHAO , TH) observed 0630 UTC 22 January 2019
Temperature: 31.0°C (88°F)
Dewpoint: 19.0°C (66°F) [RH = 49%]
Pressure (altimeter): 29.88 inches Hg (1012.0 mb)
Winds: from the S (180 degrees) at 12 MPH (10 knots; 5.1 m/s)
Visibility: 2.49 miles (4.01 km)
Ceiling: at least 12,000 feet AGL
Clouds: few clouds at 2000 feet AGL
Weather: HZ  (haze)

Forecast for: VTBU (RAYONG/U-TAPHAO , TH)
Text: TAF VTBU 220500Z 2206/2306 15008KT 5000 HZ FEW020
Forecast period: 0600 to 1100 UTC 22 January 2019
Forecast type: FROM: standard forecast or significant change
Winds: from the SSE (150 degrees) at 9 MPH (8 knots; 4.1 m/s)
Visibility: 3 miles (5 km)
Ceiling: at least 12,000 feet AGL
Clouds: few clouds at 2000 feet AGL
Weather: HZ  (haze)
Text: BECMG 2211/2213 36004KT 3000 BR
Forecast period: 1100 UTC 22 January 2019 to 0600 UTC 23 January 2019
Forecast type: BECOMING: Conditions expected to become as follows by 1300 UTC 22 January 2019
Winds: from the N (360 degrees) at 5 MPH (4 knots; 2.1 m/s)
Visibility: 1.86 miles (2.99 km)
Ceiling: at least 12,000 feet AGL
Clouds: few clouds at 2000 feet AGL
Weather: BR  (mist)

 AIRPORT MAP

 RUNWAY INFORMATION

 AIRPORT FREQUENCIES
Type APP Name APP Frequency 119.7 MHZ
Type GND Name GND Frequency 121.9 MHZ
Type TWR Name TWR Frequency 118.3 MHZ

 AIRPORT NEAR NAVIGATION AIDS
Type TACAN Name U Taphao Frequency 115800 KHZ
Type VOR-DME Name U Taphao Frequency 110800 KHZ
Type NDB Name U Taphao Frequency 414 KHZ



2018 Air Astana Virtual Airline